Terminal Aerodrome Forecast
Issued by NWS

Current Version | Previous Version | Graphics & Text | Print | Product List | Glossary On
Versions: 1 2 3 4 5 6 7 8 9 10 11 12 13 14 15 16 17
000
FTUS41 KILN 221725
TAFLUK
TAF
KLUK 221725Z 2218/2318 VRB03KT P6SM SCT050
     FM230000 00000KT P6SM SKC
     FM230600 00000KT 4SM BR SKC
      TEMPO 2309/2312 2SM BR
     FM231300 00000KT P6SM SKC=

USA.gov is the U.S. government's official web portal to all federal, state and local government web resources and services.